M I D A S
Marine Information and Data Acquisition System
Tripno 2164 of the Zeeleeuw from 2011-08-16 06:28:40 to 2011-08-16 14:17:33
Back to CruiseResearch ActivitiesStationsMapUnderway DataData graphs

EquipmentUnitsComment
TimeDGPSUTC
LatitudeDGPSDM.mWGS84
LongitudeDGPSDM.mWGS84
HeadingGyrodeg 
SOGDGPSknotsSpeed over ground
COGDGPSdegCourse over ground
DepthEcho soundermeters200 kHz
Missing or incorrect values are displayed as -999
Navigation data collected by the RV Zeeleeuw from 2011-08-16 06:30:26 to 2011-08-16 14:30:31
                                                                                    Next 1000 lines
Time Latitude Longitude Heading SOG COG Depth
2011-08-16 06:30:36 51°13.636 2°56.016 115.8 0.4 294 -999
2011-08-16 06:30:41 51°13.636 2°56.015 116 0.6 294 -999
2011-08-16 06:30:46 51°13.637 2°56.014 116.4 1 296 -999
2011-08-16 06:30:51 51°13.638 2°56.011 116.8 1.4 299 -999
2011-08-16 06:30:56 51°13.639 2°56.007 117.2 1.8 297 -999
2011-08-16 06:31:01 51°13.641 2°56.003 117.4 2.1 301 -999
2011-08-16 06:31:06 51°13.642 2°56 117.5 2 299 -999
2011-08-16 06:31:11 51°13.643 2°55.996 117.4 1.8 302 -999
2011-08-16 06:31:16 51°13.644 2°55.993 116.9 1.8 300 -999
2011-08-16 06:31:21 51°13.646 2°55.989 116 1.7 302 -999
2011-08-16 06:31:26 51°13.647 2°55.986 115.2 1.7 301 -999
2011-08-16 06:31:31 51°13.648 2°55.983 114.4 1.8 303 -999
2011-08-16 06:31:36 51°13.649 2°55.979 113.6 1.8 301 -999
2011-08-16 06:31:41 51°13.65 2°55.976 112.4 1.9 295 -999
2011-08-16 06:31:46 51°13.652 2°55.972 111.4 1.9 299 -999
2011-08-16 06:31:51 51°13.653 2°55.968 110.1 1.8 296 -999
2011-08-16 06:31:56 51°13.654 2°55.965 109 1.8 298 -999
2011-08-16 06:32:01 51°13.655 2°55.961 108 1.8 294 -999
2011-08-16 06:32:06 51°13.656 2°55.958 107.1 1.8 296 -999
2011-08-16 06:32:11 51°13.657 2°55.954 106.3 1.9 292 -999
2011-08-16 06:32:16 51°13.658 2°55.95 105.6 2 289 -999
2011-08-16 06:32:21 51°13.659 2°55.945 104.8 2.2 287 -999
2011-08-16 06:32:26 51°13.66 2°55.94 104.3 2.4 288 -999
2011-08-16 06:32:31 51°13.661 2°55.935 103.7 2.5 287 -999
2011-08-16 06:32:36 51°13.662 2°55.929 103.2 2.7 287 -999
2011-08-16 06:32:41 51°13.662 2°55.923 102.6 2.8 285 -999
2011-08-16 06:32:46 51°13.664 2°55.917 102.3 2.9 285 -999
2011-08-16 06:32:51 51°13.665 2°55.91 102.1 3 285 -999
2011-08-16 06:32:56 51°13.666 2°55.904 101.9 3.1 284 -999
2011-08-16 06:33:01 51°13.666 2°55.897 101.7 3.2 282 -999
2011-08-16 06:33:06 51°13.667 2°55.89 101.6 3.3 282 -999
2011-08-16 06:33:11 51°13.668 2°55.882 101.5 3.4 282 -999
2011-08-16 06:33:16 51°13.669 2°55.875 101.3 3.5 281 -999
2011-08-16 06:33:21 51°13.67 2°55.867 101.3 3.6 282 -999
2011-08-16 06:33:26 51°13.671 2°55.859 101.3 3.7 281 -999
2011-08-16 06:33:31 51°13.672 2°55.851 101.1 3.7 282 -999
2011-08-16 06:33:36 51°13.673 2°55.843 100.7 3.7 280 -999
2011-08-16 06:33:41 51°13.674 2°55.835 100 3.8 281 -999
2011-08-16 06:33:46 51°13.675 2°55.826 99.3 3.8 280 -999
2011-08-16 06:33:51 51°13.676 2°55.818 98.5 3.8 279 -999
2011-08-16 06:33:56 51°13.677 2°55.81 97.5 3.8 278 -999
2011-08-16 06:34:01 51°13.677 2°55.801 96.5 3.8 278 -999
2011-08-16 06:34:06 51°13.678 2°55.794 95.2 3.6 277 -999
2011-08-16 06:34:11 51°13.679 2°55.786 94.2 3.4 277 -999
2011-08-16 06:34:16 51°13.679 2°55.779 93.5 3.3 276 -999
2011-08-16 06:34:21 51°13.679 2°55.772 92.9 3.1 276 -999
2011-08-16 06:34:26 51°13.68 2°55.766 92.2 2.8 274 -999
2011-08-16 06:34:31 51°13.68 2°55.761 91 2.4 275 10
2011-08-16 06:34:36 51°13.68 2°55.757 89.7 1.8 275 10
2011-08-16 06:34:41 51°13.68 2°55.754 87.9 1.2 279 9.9
2011-08-16 06:34:46 51°13.681 2°55.753 86.2 0.5 298 10
2011-08-16 06:34:51 51°13.681 2°55.754 82.6 0.5 22 10.1
2011-08-16 06:34:55 51°13.682 2°55.755 76.3 1 48 10.2
2011-08-16 06:35:00 51°13.683 2°55.757 71.2 1.6 49 10.5
2011-08-16 06:35:05 51°13.686 2°55.761 63.8 2.1 44 11
2011-08-16 06:35:10 51°13.688 2°55.764 55.9 2.5 39 11.3
2011-08-16 06:35:15 51°13.691 2°55.767 46.3 2.8 33 11.4
2011-08-16 06:35:20 51°13.695 2°55.77 38.2 2.8 28 11.2
2011-08-16 06:35:25 51°13.698 2°55.772 32 2.6 22 11.1
2011-08-16 06:35:30 51°13.701 2°55.775 26.3 2.4 21 11.8
2011-08-16 06:35:35 51°13.704 2°55.776 23.1 2.4 18 11.3
2011-08-16 06:35:40 51°13.707 2°55.778 20.9 2.1 18 11.5
2011-08-16 06:35:46 51°13.71 2°55.779 19 1.8 14 -999
2011-08-16 06:35:51 51°13.712 2°55.779 16.8 1.5 12 11.7
2011-08-16 06:35:55 51°13.713 2°55.78 13.8 1.3 10 11.6
2011-08-16 06:36:00 51°13.715 2°55.78 11.2 1.1 10 11.5
2011-08-16 06:36:06 51°13.716 2°55.78 7.8 0.8 7 -999
2011-08-16 06:36:11 51°13.717 2°55.781 5.3 0.6 12 11.3
2011-08-16 06:36:16 51°13.718 2°55.781 3.4 0.3 8 11.5
2011-08-16 06:36:21 51°13.718 2°55.781 1.3 0.1 50 -999
2011-08-16 06:36:26 51°13.717 2°55.781 359.6 0.2 164 -999
2011-08-16 06:36:31 51°13.716 2°55.781 358.3 0.5 168 -999
2011-08-16 06:36:36 51°13.716 2°55.781 357.6 0.5 173 11.5
2011-08-16 06:36:41 51°13.715 2°55.781 357 0.5 169 -999
2011-08-16 06:36:46 51°13.714 2°55.782 356.6 0.5 170 11.5
2011-08-16 06:36:51 51°13.714 2°55.782 356.3 0.5 170 -999
2011-08-16 06:36:56 51°13.713 2°55.782 356.1 0.2 188 -999
2011-08-16 06:37:01 51°13.714 2°55.782 355.7 0.4 5 4.8
2011-08-16 06:37:06 51°13.715 2°55.781 353.9 0.9 339 -999
2011-08-16 06:37:11 51°13.716 2°55.779 349.2 1.3 344 -999
2011-08-16 06:37:16 51°13.719 2°55.778 344.9 1.7 336 11.6
2011-08-16 06:37:21 51°13.721 2°55.776 340 2.1 332 11.5
2011-08-16 06:37:26 51°13.724 2°55.773 333.7 2.5 325 11.7
2011-08-16 06:37:31 51°13.727 2°55.768 328.4 3 321 11.4
2011-08-16 06:37:35 51°13.73 2°55.764 322.6 3.5 318 11.4
2011-08-16 06:37:41 51°13.735 2°55.757 318.7 3.9 316 11.2
2011-08-16 06:37:46 51°13.739 2°55.75 316.4 4.4 316 11.1
2011-08-16 06:37:51 51°13.744 2°55.743 315.1 4.8 315 10.6
2011-08-16 06:37:55 51°13.748 2°55.737 314.4 5.1 314 10.2
2011-08-16 06:38:00 51°13.753 2°55.728 314.4 5.4 316 9.9
2011-08-16 06:38:06 51°13.76 2°55.717 315.3 5.7 315 10
2011-08-16 06:38:11 51°13.766 2°55.708 316.2 6 317 9.7
2011-08-16 06:38:15 51°13.771 2°55.701 317.1 6 317 9.9
2011-08-16 06:38:20 51°13.777 2°55.692 318.1 6 318 10.2
2011-08-16 06:38:25 51°13.784 2°55.683 319.4 6 319 10.3
2011-08-16 06:38:31 51°13.791 2°55.674 320.7 6 321 10.7
2011-08-16 06:38:35 51°13.797 2°55.667 322.7 6 322 10.8
2011-08-16 06:38:40 51°13.803 2°55.659 324 6 325 -999
2011-08-16 06:38:45 51°13.81 2°55.652 325.7 6 326 10.9
2011-08-16 06:38:51 51°13.819 2°55.644 327.9 6 328 10.9
2011-08-16 06:38:55 51°13.825 2°55.638 329.9 6 330 11.1
2011-08-16 06:39:01 51°13.833 2°55.631 331.6 5.9 331 10.8
2011-08-16 06:39:06 51°13.84 2°55.625 333.3 5.9 332 10.8
2011-08-16 06:39:11 51°13.848 2°55.619 334.4 6 333 10.8
2011-08-16 06:39:16 51°13.855 2°55.613 334.8 6 333 10.8
2011-08-16 06:39:21 51°13.863 2°55.607 335.3 6 334 10.8
2011-08-16 06:39:26 51°13.87 2°55.601 335.6 6.1 334 -999
2011-08-16 06:39:31 51°13.878 2°55.596 336.1 6.1 336 10.8
2011-08-16 06:39:36 51°13.886 2°55.59 336.8 6.1 335 -999
2011-08-16 06:39:41 51°13.893 2°55.584 337.1 6.2 336 10.9
2011-08-16 06:39:46 51°13.901 2°55.579 337.6 6.2 337 10.9
2011-08-16 06:39:51 51°13.909 2°55.574 338.1 6.3 337 10.9
2011-08-16 06:39:56 51°13.917 2°55.568 338.1 6.3 336 -999
2011-08-16 06:40:01 51°13.926 2°55.562 337.9 6.4 337 10.9
2011-08-16 06:40:06 51°13.934 2°55.557 337.9 6.5 336 -999
2011-08-16 06:40:11 51°13.942 2°55.551 337.8 6.6 336 -999
2011-08-16 06:40:16 51°13.95 2°55.545 337.3 6.6 335 10.8
2011-08-16 06:40:21 51°13.959 2°55.539 337.1 6.6 335 -999
2011-08-16 06:40:26 51°13.967 2°55.533 337.2 6.7 336 -999
2011-08-16 06:40:31 51°13.976 2°55.527 337.4 6.7 336 10.8
2011-08-16 06:40:36 51°13.984 2°55.521 337.5 6.8 336 10.8
2011-08-16 06:40:41 51°13.993 2°55.514 337.5 6.9 336 10.8
2011-08-16 06:40:46 51°14.001 2°55.508 337.2 6.9 336 10.7
2011-08-16 06:40:51 51°14.01 2°55.502 337.1 6.9 337 10.7
2011-08-16 06:40:56 51°14.019 2°55.496 337.9 7 336 10.6
2011-08-16 06:41:01 51°14.028 2°55.49 338.3 7 336 10.6
2011-08-16 06:41:06 51°14.037 2°55.483 338.2 7 336 10.5
2011-08-16 06:41:11 51°14.046 2°55.477 338.1 7.1 335 10.6
2011-08-16 06:41:16 51°14.055 2°55.471 337.8 7.1 337 -999
2011-08-16 06:41:21 51°14.064 2°55.464 337.8 7.1 336 10.6
2011-08-16 06:41:26 51°14.073 2°55.458 337.8 7.2 336 10.6
2011-08-16 06:41:31 51°14.082 2°55.452 337.7 7.2 336 10.5
2011-08-16 06:41:36 51°14.091 2°55.445 337.9 7.2 336 10.5
2011-08-16 06:41:41 51°14.1 2°55.439 338.1 7.2 335 10.5
2011-08-16 06:41:46 51°14.109 2°55.432 337.9 7.2 335 10.5
2011-08-16 06:41:51 51°14.118 2°55.425 337.3 7.2 334 10.5
2011-08-16 06:41:55 51°14.126 2°55.42 336.8 7.3 335 10.5
2011-08-16 06:42:01 51°14.137 2°55.411 336.6 7.3 334 10.5
2011-08-16 06:42:06 51°14.146 2°55.404 336.3 7.2 334 10.4
2011-08-16 06:42:11 51°14.155 2°55.397 336 7.3 334 10.4
2011-08-16 06:42:15 51°14.162 2°55.392 335.8 7.3 334 10.4
2011-08-16 06:42:20 51°14.171 2°55.384 335.6 7.3 334 10.4
2011-08-16 06:42:25 51°14.18 2°55.377 335.5 7.3 334 10.5
2011-08-16 06:42:30 51°14.19 2°55.37 335.5 7.3 333 10.5
2011-08-16 06:42:35 51°14.198 2°55.362 335.1 7.3 332 10.5
2011-08-16 06:42:40 51°14.207 2°55.355 334.3 7.3 332 10.5
2011-08-16 06:42:45 51°14.216 2°55.347 333.9 7.3 332 10.7
2011-08-16 06:42:50 51°14.225 2°55.34 333.6 7.3 332 10.5
2011-08-16 06:42:55 51°14.234 2°55.332 333.3 7.3 332 10.5
2011-08-16 06:42:59 51°14.241 2°55.326 333.4 7.3 332 10.5
2011-08-16 06:43:05 51°14.252 2°55.317 333.5 7.4 331 10.5
2011-08-16 06:43:10 51°14.261 2°55.309 333.2 7.4 331 10.4
2011-08-16 06:43:15 51°14.27 2°55.301 332.5 7.4 330 10.4
2011-08-16 06:43:20 51°14.278 2°55.293 331.6 7.3 329 10.4
2011-08-16 06:43:25 51°14.287 2°55.284 331.1 7.3 330 10.4
2011-08-16 06:43:30 51°14.296 2°55.276 331.2 7.3 330 10.6
2011-08-16 06:43:35 51°14.305 2°55.268 331.7 7.3 330 -999
2011-08-16 06:43:40 51°14.314 2°55.26 331.9 7.4 330 10.4
2011-08-16 06:43:45 51°14.323 2°55.252 332.1 7.4 330 10.4
2011-08-16 06:43:50 51°14.332 2°55.244 332.2 7.4 330 10.3
2011-08-16 06:43:55 51°14.34 2°55.235 331.8 7.4 329 -999
2011-08-16 06:44:00 51°14.349 2°55.227 330.9 7.4 329 10.4
2011-08-16 06:44:05 51°14.358 2°55.218 330.3 7.4 328 10.3
2011-08-16 06:44:10 51°14.366 2°55.21 329.8 7.3 328 10.4
2011-08-16 06:44:15 51°14.375 2°55.201 329.6 7.3 328 10.4
2011-08-16 06:44:19 51°14.382 2°55.194 329.8 7.3 329 10.6
2011-08-16 06:44:24 51°14.39 2°55.186 330.2 7.3 328 10.1
2011-08-16 06:44:29 51°14.399 2°55.177 330.2 7.3 328 10.4
2011-08-16 06:44:34 51°14.408 2°55.168 330 7.3 327 10.4
2011-08-16 06:44:39 51°14.416 2°55.16 329.3 7.3 327 10.4
2011-08-16 06:44:44 51°14.425 2°55.151 329.1 7.3 327 10.4
2011-08-16 06:44:49 51°14.433 2°55.142 328.9 7.3 326 10.4
2011-08-16 06:44:54 51°14.442 2°55.133 328.5 7.3 327 10.4
2011-08-16 06:44:59 51°14.451 2°55.124 328.3 7.3 326 10.4
2011-08-16 06:45:04 51°14.459 2°55.115 328.1 7.3 327 10.4
2011-08-16 06:45:09 51°14.467 2°55.107 328.1 7.3 326 10.5
2011-08-16 06:45:14 51°14.476 2°55.098 327.9 7.3 326 10.4
2011-08-16 06:45:19 51°14.484 2°55.088 327 7.3 325 10.6
2011-08-16 06:45:23 51°14.491 2°55.081 326 7.3 324 10.8
2011-08-16 06:45:28 51°14.499 2°55.071 325.5 7.5 324 10.5
2011-08-16 06:45:33 51°14.508 2°55.061 325.4 7.8 324 10.8
2011-08-16 06:45:38 51°14.517 2°55.051 325.4 8.1 324 10.7
2011-08-16 06:45:43 51°14.526 2°55.04 325.3 8.2 323 10.7
2011-08-16 06:45:48 51°14.535 2°55.028 325.1 8.5 322 11.1
2011-08-16 06:45:53 51°14.545 2°55.016 324.7 8.7 321 11.1
2011-08-16 06:45:58 51°14.554 2°55.003 324.2 8.9 320 11
2011-08-16 06:46:03 51°14.563 2°54.99 323.8 9 319 11.3
2011-08-16 06:46:07 51°14.571 2°54.979 323.8 9.2 318 11.1
2011-08-16 06:46:12 51°14.58 2°54.964 323.7 9.4 316 11.3
2011-08-16 06:46:18 51°14.591 2°54.947 323.5 9.6 316 11.1
2011-08-16 06:46:23 51°14.601 2°54.932 324.4 9.7 318 11.2
2011-08-16 06:46:27 51°14.61 2°54.921 326 9.8 319 11.1
2011-08-16 06:46:32 51°14.62 2°54.907 327.5 9.8 319 10.9
2011-08-16 06:46:38 51°14.633 2°54.89 328.1 10 320 11.1
2011-08-16 06:46:43 51°14.643 2°54.876 328.1 10 319 11
2011-08-16 06:46:47 51°14.652 2°54.865 328.2 10 321 11
2011-08-16 06:46:52 51°14.663 2°54.851 328.5 10.1 320 11.1
2011-08-16 06:46:57 51°14.674 2°54.836 328.9 10.2 322 11
2011-08-16 06:47:03 51°14.688 2°54.819 329.6 10.4 322 11
2011-08-16 06:47:07 51°14.697 2°54.808 330 10.5 322 10.9
2011-08-16 06:47:12 51°14.708 2°54.793 329.6 10.7 321 10.8
2011-08-16 06:47:17 51°14.72 2°54.778 328.8 10.9 321 10.8
2011-08-16 06:47:23 51°14.735 2°54.76 328.7 11 321 10.8
2011-08-16 06:47:27 51°14.744 2°54.748 329.2 11.2 322 10.9
2011-08-16 06:47:33 51°14.759 2°54.729 329.3 11.3 321 10.9
2011-08-16 06:47:38 51°14.771 2°54.713 328.8 11.5 321 11
2011-08-16 06:47:43 51°14.784 2°54.697 328.2 11.7 321 11
2011-08-16 06:47:47 51°14.794 2°54.684 328.1 11.9 322 11.1
2011-08-16 06:47:52 51°14.807 2°54.666 328.2 12.2 321 11.2
2011-08-16 06:47:58 51°14.823 2°54.646 327.6 12.4 322 11.2
2011-08-16 06:48:03 51°14.837 2°54.63 328.8 12.5 323 11.1
2011-08-16 06:48:07 51°14.848 2°54.617 329.4 12.6 323 11.2
2011-08-16 06:48:12 51°14.863 2°54.6 329.6 12.7 323 11.2
2011-08-16 06:48:18 51°14.88 2°54.58 329.6 12.8 323 11.3
2011-08-16 06:48:22 51°14.891 2°54.567 330 12.7 325 11.3
2011-08-16 06:48:27 51°14.906 2°54.55 330.5 12.8 324 11.1
2011-08-16 06:48:32 51°14.92 2°54.533 329.6 12.9 323 11.1
2011-08-16 06:48:38 51°14.937 2°54.513 328.7 12.8 323 11
2011-08-16 06:48:43 51°14.951 2°54.496 328.8 12.7 324 10.9
2011-08-16 06:48:47 51°14.963 2°54.483 329.4 12.7 324 10.9
2011-08-16 06:48:52 51°14.977 2°54.466 329.1 12.8 323 10.9
2011-08-16 06:48:58 51°14.994 2°54.446 328.6 12.7 323 10.8
2011-08-16 06:49:03 51°15.008 2°54.428 328.6 12.8 323 11
2011-08-16 06:49:07 51°15.018 2°54.413 327.7 12.8 321 10.9
2011-08-16 06:49:12 51°15.032 2°54.396 327.2 12.8 322 10.8
2011-08-16 06:49:17 51°15.046 2°54.379 327.2 12.8 322 10.8
2011-08-16 06:49:23 51°15.063 2°54.357 326.5 12.8 320 10.7
2011-08-16 06:49:27 51°15.074 2°54.343 325.7 12.8 321 10.7
2011-08-16 06:49:33 51°15.091 2°54.322 326.2 12.7 322 10.7
2011-08-16 06:49:38 51°15.105 2°54.305 326.9 12.8 321 10.9
2011-08-16 06:49:43 51°15.118 2°54.287 326.7 12.8 321 10.9
2011-08-16 06:49:47 51°15.13 2°54.273 327 12.8 322 10.8
2011-08-16 06:49:52 51°15.143 2°54.254 326.1 12.8 320 10.9
2011-08-16 06:49:58 51°15.159 2°54.233 325.6 12.8 321 11
2011-08-16 06:50:02 51°15.171 2°54.219 325.6 12.8 320 11
2011-08-16 06:50:07 51°15.185 2°54.202 326.4 12.8 321 11
2011-08-16 06:50:12 51°15.198 2°54.183 325.9 12.9 319 11
2011-08-16 06:50:18 51°15.214 2°54.161 324.5 12.8 319 11
2011-08-16 06:50:22 51°15.225 2°54.146 323.8 12.8 320 11
2011-08-16 06:50:27 51°15.239 2°54.128 325.6 12.8 322 11.1
2011-08-16 06:50:33 51°15.256 2°54.107 326.7 12.9 321 11.2
2011-08-16 06:50:38 51°15.269 2°54.089 326.3 12.9 321 11.2
2011-08-16 06:50:43 51°15.283 2°54.071 325.5 12.9 321 11.2
2011-08-16 06:50:47 51°15.294 2°54.057 326.9 12.8 324 11.2
2011-08-16 06:50:52 51°15.309 2°54.041 328.7 12.8 324 11.1
2011-08-16 06:50:58 51°15.326 2°54.021 329.1 12.8 325 11.4
2011-08-16 06:51:03 51°15.341 2°54.005 330.4 12.8 326 11.2
2011-08-16 06:51:07 51°15.353 2°53.992 331 12.8 326 11.3
2011-08-16 06:51:12 51°15.367 2°53.976 330.8 12.8 326 11.2
2011-08-16 06:51:18 51°15.385 2°53.956 330.1 12.8 324 11.3
2011-08-16 06:51:23 51°15.399 2°53.941 330 12.8 326 11.3
2011-08-16 06:51:27 51°15.411 2°53.927 329.9 12.8 325 11.2
2011-08-16 06:51:33 51°15.429 2°53.908 330.5 12.8 327 11.4
2011-08-16 06:51:38 51°15.443 2°53.892 330.9 12.9 324 11.4
2011-08-16 06:51:43 51°15.457 2°53.874 329.2 12.9 323 11.2
2011-08-16 06:51:47 51°15.469 2°53.861 328.1 12.8 323 11.1
2011-08-16 06:51:52 51°15.483 2°53.844 328 12.8 323 11.1
2011-08-16 06:51:58 51°15.5 2°53.823 328.1 12.9 323 11.1
2011-08-16 06:52:02 51°15.511 2°53.809 327 12.9 322 11.1
2011-08-16 06:52:07 51°15.526 2°53.792 327.1 12.9 324 11.2
2011-08-16 06:52:12 51°15.54 2°53.775 327.8 12.9 324 11.3
2011-08-16 06:52:17 51°15.555 2°53.759 329.2 12.9 325 11.3
2011-08-16 06:52:23 51°15.572 2°53.739 329.9 12.9 325 11.5
2011-08-16 06:52:27 51°15.584 2°53.726 329.9 12.9 324 11.2
2011-08-16 06:52:33 51°15.601 2°53.705 328.9 12.9 323 11.3
2011-08-16 06:52:38 51°15.616 2°53.689 328.9 12.9 325 11.3
2011-08-16 06:52:43 51°15.63 2°53.673 330.5 12.9 326 11.3
2011-08-16 06:52:47 51°15.642 2°53.66 331.5 12.9 326 11.3
2011-08-16 06:52:53 51°15.661 2°53.643 333.2 12.9 328 11.4
2011-08-16 06:52:58 51°15.676 2°53.627 334 12.9 328 11.4
2011-08-16 06:53:03 51°15.691 2°53.613 334.6 12.8 330 11.3
2011-08-16 06:53:07 51°15.704 2°53.603 336.1 12.8 332 11.4
2011-08-16 06:53:12 51°15.72 2°53.59 338.1 12.8 333 11.4
2011-08-16 06:53:18 51°15.739 2°53.575 339.4 12.8 334 11.4
2011-08-16 06:53:23 51°15.755 2°53.562 340 12.8 335 11.3
2011-08-16 06:53:27 51°15.768 2°53.553 340.5 12.8 334 11.4
2011-08-16 06:53:32 51°15.783 2°53.541 340.6 12.8 335 11.4
2011-08-16 06:53:38 51°15.803 2°53.527 341.2 12.8 336 11.3
2011-08-16 06:53:43 51°15.819 2°53.516 342.2 12.7 337 11.4
2011-08-16 06:53:47 51°15.832 2°53.508 343.7 12.7 337 11.2
2011-08-16 06:53:52 51°15.848 2°53.496 343.4 12.8 336 11.1
2011-08-16 06:53:57 51°15.864 2°53.484 342.4 12.8 335 10.9
2011-08-16 06:54:03 51°15.884 2°53.471 342.4 12.7 336 11
2011-08-16 06:54:07 51°15.896 2°53.461 341.7 12.7 333 10.9
2011-08-16 06:54:12 51°15.912 2°53.448 340.1 12.7 333 10.8
2011-08-16 06:54:18 51°15.931 2°53.432 339.3 12.7 332 10.9
2011-08-16 06:54:23 51°15.946 2°53.419 339.1 12.7 332 11
2011-08-16 06:54:27 51°15.959 2°53.408 339 12.8 332 10.8
2011-08-16 06:54:33 51°15.978 2°53.391 338 12.8 330 10.8
2011-08-16 06:54:38 51°15.993 2°53.377 336.9 12.8 330 10.8
2011-08-16 06:54:43 51°16.008 2°53.362 336.2 12.8 329 10.8
2011-08-16 06:54:48 51°16.023 2°53.348 335.4 12.8 329 10.9
2011-08-16 06:54:52 51°16.035 2°53.336 335.4 12.8 329 10.8
2011-08-16 06:54:58 51°16.054 2°53.319 335.5 12.8 329 10.9
2011-08-16 06:55:02 51°16.066 2°53.307 335.8 12.8 329 10.8
2011-08-16 06:55:07 51°16.081 2°53.292 335.9 12.8 329 10.9
2011-08-16 06:55:13 51°16.099 2°53.275 336 12.8 330 11
2011-08-16 06:55:18 51°16.115 2°53.261 336.1 12.8 330 10.9
2011-08-16 06:55:23 51°16.13 2°53.247 336.2 12.9 330 11.1
2011-08-16 06:55:27 51°16.143 2°53.236 336.1 12.8 330 11
2011-08-16 06:55:32 51°16.158 2°53.221 336.1 12.8 330 11
2011-08-16 06:55:38 51°16.176 2°53.205 336.9 12.7 332 11.1
2011-08-16 06:55:43 51°16.192 2°53.191 337.6 12.8 331 11.1
2011-08-16 06:55:47 51°16.204 2°53.181 338.3 12.7 333 11.2
2011-08-16 06:55:52 51°16.22 2°53.168 339.1 12.7 332 11.2
2011-08-16 06:55:57 51°16.236 2°53.155 339.1 12.7 332 11.1
2011-08-16 06:56:03 51°16.255 2°53.139 339 12.7 332 11.2
2011-08-16 06:56:07 51°16.267 2°53.129 339 12.7 333 11.1
2011-08-16 06:56:13 51°16.286 2°53.114 339.1 12.7 333 11.3
2011-08-16 06:56:18 51°16.302 2°53.101 339.5 12.7 333 11.2
2011-08-16 06:56:23 51°16.317 2°53.089 339.9 12.7 334 11.2
2011-08-16 06:56:27 51°16.33 2°53.079 340.2 12.7 334 11.3
2011-08-16 06:56:32 51°16.346 2°53.066 340.3 12.8 334 11.3
2011-08-16 06:56:38 51°16.365 2°53.052 340.5 12.7 335 11.2
2011-08-16 06:56:42 51°16.378 2°53.043 341.9 12.6 337 11.1
2011-08-16 06:56:48 51°16.397 2°53.029 343 12.7 336 11.3
2011-08-16 06:56:52 51°16.41 2°53.02 343 12.7 336 11.2
2011-08-16 06:56:58 51°16.43 2°53.007 342.7 12.7 336 11.2
2011-08-16 06:57:02 51°16.443 2°52.998 343.3 12.7 338 11.1
2011-08-16 06:57:07 51°16.459 2°52.987 343.8 12.7 337 11
2011-08-16 06:57:13 51°16.479 2°52.975 344.1 12.7 338 11
2011-08-16 06:57:18 51°16.494 2°52.963 343.9 12.7 336 11.1
2011-08-16 06:57:23 51°16.51 2°52.952 342.8 12.7 336 11
2011-08-16 06:57:27 51°16.523 2°52.943 342.3 12.7 335 11
2011-08-16 06:57:33 51°16.542 2°52.928 341.2 12.7 335 10.9
2011-08-16 06:57:38 51°16.558 2°52.916 341.1 12.7 335 10.9
2011-08-16 06:57:43 51°16.575 2°52.904 341.4 12.7 335 10.8
2011-08-16 06:57:47 51°16.587 2°52.894 340.7 12.7 333 10.7
2011-08-16 06:57:52 51°16.603 2°52.881 339.7 12.7 333 10.6
2011-08-16 06:57:58 51°16.622 2°52.866 339.7 12.7 333 10.5
2011-08-16 06:58:03 51°16.638 2°52.853 339.3 12.7 332 10.5
2011-08-16 06:58:07 51°16.65 2°52.842 338.5 12.7 332 10.4
2011-08-16 06:58:12 51°16.665 2°52.829 337.6 12.7 331 10.4
2011-08-16 06:58:18 51°16.684 2°52.812 336.9 12.7 331 10.2
2011-08-16 06:58:23 51°16.699 2°52.798 335.9 12.8 330 10.1
2011-08-16 06:58:27 51°16.712 2°52.787 336.3 12.7 333 9.8
2011-08-16 06:58:32 51°16.727 2°52.774 337.6 12.7 332 9.6
2011-08-16 06:58:38 51°16.746 2°52.758 337.6 12.6 332 9.4
2011-08-16 06:58:43 51°16.761 2°52.745 337.9 12.6 332 9.1
2011-08-16 06:58:47 51°16.773 2°52.735 337.9 12.5 333 8.9
2011-08-16 06:58:52 51°16.789 2°52.722 337.6 12.5 332 8.9
2011-08-16 06:58:57 51°16.804 2°52.709 337.2 12.5 332 8.9
2011-08-16 06:59:02 51°16.819 2°52.696 337.1 12.5 332 8.9
2011-08-16 06:59:07 51°16.835 2°52.683 337 12.5 332 8.8
2011-08-16 06:59:13 51°16.853 2°52.667 336.9 12.5 332 8.7
2011-08-16 06:59:18 51°16.868 2°52.655 336.9 12.5 333 8.8
2011-08-16 06:59:23 51°16.884 2°52.642 337.1 12.5 333 8.8
2011-08-16 06:59:27 51°16.896 2°52.632 337.4 12.5 332 8.9
2011-08-16 06:59:33 51°16.915 2°52.617 337.6 12.5 334 9
2011-08-16 06:59:38 51°16.93 2°52.605 338.5 12.6 335 9.1
2011-08-16 06:59:43 51°16.946 2°52.594 340 12.5 337 9.1
2011-08-16 06:59:47 51°16.959 2°52.585 341.2 12.5 337 9
2011-08-16 06:59:52 51°16.975 2°52.575 342 12.5 337 9
2011-08-16 06:59:58 51°16.994 2°52.562 342.4 12.5 338 8.9
2011-08-16 07:00:03 51°17.01 2°52.552 343 12.5 339 8.9
2011-08-16 07:00:07 51°17.023 2°52.544 343.4 12.4 340 8.9
2011-08-16 07:00:12 51°17.04 2°52.536 344.9 12.4 343 8.9
2011-08-16 07:00:18 51°17.059 2°52.527 347.6 12.3 345 8.9
2011-08-16 07:00:23 51°17.076 2°52.521 350.2 12.3 348 8.9
2011-08-16 07:00:27 51°17.09 2°52.518 353.5 12.3 351 8.8
2011-08-16 07:00:32 51°17.106 2°52.515 356.7 12.2 354 9
2011-08-16 07:00:37 51°17.123 2°52.514 0.3 12.2 358 9
2011-08-16 07:00:43 51°17.144 2°52.514 3 12.3 -999 9
2011-08-16 07:00:47 51°17.157 2°52.514 4.6 12.2 -999 9.1
2011-08-16 07:00:52 51°17.174 2°52.514 5.2 12.2 -999 9
2011-08-16 07:00:57 51°17.191 2°52.515 5.5 12.2 1 9.1
2011-08-16 07:01:02 51°17.208 2°52.516 6.3 12.2 2 9.2
2011-08-16 07:01:07 51°17.225 2°52.517 6.9 12.3 2 9.2
2011-08-16 07:01:13 51°17.245 2°52.519 7.8 12.2 4 9.1
2011-08-16 07:01:18 51°17.262 2°52.52 8.1 12.3 2 9.2
2011-08-16 07:01:23 51°17.279 2°52.521 7.8 12.2 3 9.4
2011-08-16 07:01:27 51°17.293 2°52.523 7.7 12.2 3 9.3
2011-08-16 07:01:33 51°17.313 2°52.524 7.8 12.2 2 9.3
2011-08-16 07:01:38 51°17.33 2°52.525 7.4 12.2 3 9.4
2011-08-16 07:01:43 51°17.347 2°52.526 7.3 12.2 1 9.3
2011-08-16 07:01:47 51°17.36 2°52.526 7 12.2 2 9.4
2011-08-16 07:01:52 51°17.377 2°52.527 6.3 12.2 1 9.4
2011-08-16 07:01:58 51°17.398 2°52.527 6.3 12.3 1 9.4
2011-08-16 07:02:03 51°17.415 2°52.528 6.3 12.3 1 9.4
2011-08-16 07:02:07 51°17.429 2°52.528 6.1 12.3 1 9.4
2011-08-16 07:02:12 51°17.445 2°52.529 6.2 12.3 1 9.5
2011-08-16 07:02:18 51°17.466 2°52.53 6.5 12.2 2 9.5
2011-08-16 07:02:23 51°17.483 2°52.531 6.3 12.2 2 9.5
2011-08-16 07:02:27 51°17.496 2°52.534 8.2 12.2 7 9.4
2011-08-16 07:02:32 51°17.513 2°52.54 13.2 12.1 13 9.6
2011-08-16 07:02:37 51°17.529 2°52.547 17.7 12 17 9.4
2011-08-16 07:02:43 51°17.547 2°52.557 21.1 11.9 19 9.5
2011-08-16 07:02:47 51°17.559 2°52.566 24 11.9 23 9.4
2011-08-16 07:02:52 51°17.574 2°52.577 27.4 11.8 26 9.5
2011-08-16 07:02:57 51°17.588 2°52.59 31 11.8 31 9.5
2011-08-16 07:03:03 51°17.604 2°52.608 34.4 11.8 34 9.6
2011-08-16 07:03:07 51°17.614 2°52.621 38.8 11.7 40 9.4
2011-08-16 07:03:13 51°17.629 2°52.642 43 11.6 43 9.6
2011-08-16 07:03:18 51°17.639 2°52.661 46.4 11.6 48 9.4
2011-08-16 07:03:23 51°17.649 2°52.681 49.6 11.7 51 9.5
2011-08-16 07:03:27 51°17.657 2°52.698 54.2 11.6 56 9.4
2011-08-16 07:03:32 51°17.665 2°52.72 57.7 11.7 58 9.4
2011-08-16 07:03:38 51°17.675 2°52.747 59.7 11.7 60 9.4
2011-08-16 07:03:42 51°17.682 2°52.765 61.3 11.7 61 9.4
2011-08-16 07:03:47 51°17.689 2°52.788 63.4 11.6 63 9.6
2011-08-16 07:03:52 51°17.696 2°52.811 64 11.7 61 9.3
2011-08-16 07:03:58 51°17.706 2°52.838 62.4 11.8 59 9.6
2011-08-16 07:04:03 51°17.715 2°52.86 60.4 11.7 58 9.4
2011-08-16 07:04:07 51°17.722 2°52.877 59.6 11.7 58 9.4
2011-08-16 07:04:13 51°17.733 2°52.902 57 11.7 54 9.4
2011-08-16 07:04:18 51°17.743 2°52.923 56.4 11.7 54 9.2
2011-08-16 07:04:23 51°17.752 2°52.944 55.9 11.7 54 9.3
2011-08-16 07:04:27 51°17.76 2°52.96 54.5 11.7 51 9.3
2011-08-16 07:04:32 51°17.771 2°52.979 51.8 11.7 49 9.5
2011-08-16 07:04:38 51°17.784 2°53.003 50.7 11.6 49 9.5
2011-08-16 07:04:43 51°17.795 2°53.021 50.1 11.7 47 9.3
2011-08-16 07:04:47 51°17.804 2°53.037 49.5 11.7 48 9.4
2011-08-16 07:04:52 51°17.815 2°53.055 49.1 11.7 46 9.3
2011-08-16 07:04:58 51°17.829 2°53.078 48.7 11.7 47 9.5
2011-08-16 07:05:03 51°17.84 2°53.096 48.2 11.7 45 9.5
2011-08-16 07:05:07 51°17.849 2°53.111 47.8 11.7 46 9.3
2011-08-16 07:05:12 51°17.861 2°53.13 47.3 11.7 45 9.3
2011-08-16 07:05:18 51°17.874 2°53.152 47.6 11.8 45 9.3
2011-08-16 07:05:23 51°17.886 2°53.171 47.8 11.8 46 9.2
2011-08-16 07:05:28 51°17.896 2°53.19 49.6 11.7 49 9.4
2011-08-16 07:05:32 51°17.905 2°53.206 50.2 11.7 48 9.3
2011-08-16 07:05:38 51°17.917 2°53.229 51.1 11.7 50 9.5
2011-08-16 07:05:42 51°17.926 2°53.245 51.5 11.8 49 9.5
2011-08-16 07:05:47 51°17.937 2°53.265 50.8 11.8 48 9.4
2011-08-16 07:05:53 51°17.95 2°53.288 50.4 11.8 49 9.5
2011-08-16 07:05:58 51°17.961 2°53.307 50.7 11.8 47 9.4
2011-08-16 07:06:03 51°17.972 2°53.327 50 11.8 47 9.3
2011-08-16 07:06:07 51°17.981 2°53.342 48.7 11.8 46 9.5
2011-08-16 07:06:13 51°17.995 2°53.364 48.2 11.7 46 9.3
2011-08-16 07:06:18 51°18.006 2°53.382 47.8 11.7 44 9.4
2011-08-16 07:06:23 51°18.018 2°53.399 46.1 11.8 42 9.5
2011-08-16 07:06:27 51°18.028 2°53.414 45.2 11.7 43 9.4
2011-08-16 07:06:32 51°18.04 2°53.431 44.9 11.8 40 9.3
2011-08-16 07:06:38 51°18.055 2°53.451 43.2 11.8 42 9.6
2011-08-16 07:06:43 51°18.067 2°53.468 43.6 11.8 41 9.4
2011-08-16 07:06:47 51°18.076 2°53.483 45.3 11.7 46 9.5
2011-08-16 07:06:52 51°18.088 2°53.502 46.5 11.7 45 9.7
2011-08-16 07:06:58 51°18.101 2°53.524 48.2 11.7 47 9.4
2011-08-16 07:07:03 51°18.112 2°53.544 49 11.6 49 9.7
2011-08-16 07:07:07 51°18.12 2°53.559 50.6 11.6 50 9.6
2011-08-16 07:07:12 51°18.129 2°53.581 53.5 11.6 57 9.5
2011-08-16 07:07:18 51°18.14 2°53.607 56.4 11.6 57 9.5
2011-08-16 07:07:23 51°18.148 2°53.629 59.6 11.6 61 9.5
2011-08-16 07:07:27 51°18.154 2°53.647 61.4 11.6 61 9.6
2011-08-16 07:07:32 51°18.161 2°53.67 62.7 11.6 64 9.5
2011-08-16 07:07:37 51°18.169 2°53.693 63.5 11.6 62 9.6
2011-08-16 07:07:43 51°18.177 2°53.721 64 11.7 65 9.6
2011-08-16 07:07:47 51°18.183 2°53.739 65.1 11.7 64 9.6
2011-08-16 07:07:53 51°18.191 2°53.767 65.1 11.7 65 9.6
2011-08-16 07:07:58 51°18.198 2°53.79 65.4 11.7 62 9.3
2011-08-16 07:08:03 51°18.206 2°53.813 64.3 11.6 63 9.5
2011-08-16 07:08:07 51°18.213 2°53.83 61.6 11.7 58 9.6
2011-08-16 07:08:13 51°18.223 2°53.857 60.3 11.7 58 9.5
2011-08-16 07:08:18 51°18.232 2°53.878 58.9 11.7 56 9.5
2011-08-16 07:08:23 51°18.241 2°53.9 57.8 11.7 56 9.4
2011-08-16 07:08:27 51°18.249 2°53.917 57.3 11.7 54 9.5
2011-08-16 07:08:32 51°18.258 2°53.938 56.1 11.7 54 9.5
2011-08-16 07:08:38 51°18.27 2°53.962 55.2 11.7 51 9.5
2011-08-16 07:08:42 51°18.278 2°53.978 53.6 11.7 52 9.4
2011-08-16 07:08:47 51°18.289 2°53.998 52.8 11.7 49 9.5
2011-08-16 07:08:52 51°18.3 2°54.017 50.8 11.8 50 9.6
2011-08-16 07:08:58 51°18.312 2°54.041 50.9 11.7 49 9.6
2011-08-16 07:09:03 51°18.323 2°54.06 51 11.7 50 9.6
2011-08-16 07:09:07 51°18.331 2°54.077 51.7 11.7 50 9.6
2011-08-16 07:09:12 51°18.342 2°54.097 52.4 11.8 52 9.6
2011-08-16 07:09:18 51°18.353 2°54.122 53.8 11.8 54 9.6
2011-08-16 07:09:23 51°18.363 2°54.143 55 11.7 53 9.6
2011-08-16 07:09:27 51°18.37 2°54.16 56.1 11.7 56 9.5
2011-08-16 07:09:32 51°18.379 2°54.181 56.9 11.7 55 9.6
2011-08-16 07:09:37 51°18.389 2°54.203 56.8 11.7 55 9.7
2011-08-16 07:09:43 51°18.399 2°54.228 56.8 11.7 56 9.6
2011-08-16 07:09:47 51°18.407 2°54.245 57.3 11.7 55 9.6
2011-08-16 07:09:53 51°18.418 2°54.271 56.7 11.7 55 9.6
2011-08-16 07:09:58 51°18.428 2°54.292 56.5 11.7 55 9.6
2011-08-16 07:10:03 51°18.437 2°54.313 56 11.7 54 9.6
2011-08-16 07:10:07 51°18.445 2°54.33 55.8 11.7 54 9.6
2011-08-16 07:10:12 51°18.454 2°54.351 55.9 11.7 56 9.7
2011-08-16 07:10:18 51°18.465 2°54.376 56.7 11.7 54 9.7
2011-08-16 07:10:22 51°18.473 2°54.393 56 11.7 54 9.7
2011-08-16 07:10:27 51°18.482 2°54.414 55.6 11.6 55 9.6
2011-08-16 07:10:32 51°18.492 2°54.435 55.9 11.7 53 9.6
2011-08-16 07:10:38 51°18.504 2°54.46 55.8 11.7 54 9.8
2011-08-16 07:10:42 51°18.511 2°54.477 55.3 11.7 53 9.6
2011-08-16 07:10:47 51°18.521 2°54.498 55 11.6 54 9.7
2011-08-16 07:10:53 51°18.532 2°54.523 55.4 11.7 56 9.7
2011-08-16 07:10:58 51°18.54 2°54.545 57.8 11.7 58 9.7
2011-08-16 07:11:03 51°18.549 2°54.567 58.4 11.7 58 9.7
2011-08-16 07:11:07 51°18.555 2°54.585 59.8 11.7 59 9.6
2011-08-16 07:11:12 51°18.564 2°54.607 60.4 11.7 60 9.7
2011-08-16 07:11:18 51°18.573 2°54.634 60.9 11.7 61 9.7
2011-08-16 07:11:23 51°18.58 2°54.657 61.7 11.7 62 9.8
2011-08-16 07:11:27 51°18.587 2°54.675 62.2 11.7 61 9.8
2011-08-16 07:11:32 51°18.594 2°54.699 63.3 11.6 65 9.7
2011-08-16 07:11:38 51°18.603 2°54.726 64.2 11.7 62 9.8
2011-08-16 07:11:43 51°18.61 2°54.749 63.9 11.7 64 9.8
2011-08-16 07:11:47 51°18.615 2°54.768 64.3 11.7 64 9.7
2011-08-16 07:11:52 51°18.623 2°54.791 64.6 11.7 63 9.7
2011-08-16 07:11:58 51°18.632 2°54.818 63.2 11.7 61 9.7
2011-08-16 07:12:03 51°18.64 2°54.841 62.6 11.7 61 9.8
2011-08-16 07:12:07 51°18.646 2°54.859 61.7 11.7 60 9.8
2011-08-16 07:12:12 51°18.655 2°54.881 59.8 11.7 57 9.8
2011-08-16 07:12:18 51°18.665 2°54.907 58.8 11.7 59 9.9
2011-08-16 07:12:22 51°18.672 2°54.924 58.8 11.7 56 9.9
2011-08-16 07:12:27 51°18.681 2°54.946 58.1 11.7 58 9.8
2011-08-16 07:12:32 51°18.69 2°54.967 58.4 11.6 57 9.9
2011-08-16 07:12:37 51°18.698 2°54.989 58.5 11.6 59 10
2011-08-16 07:12:43 51°18.709 2°55.015 59.4 11.6 57 9.9
2011-08-16 07:12:47 51°18.716 2°55.032 58.3 11.7 56 9.8
2011-08-16 07:12:53 51°18.727 2°55.058 57.2 11.7 55 9.8
2011-08-16 07:12:58 51°18.736 2°55.079 56.9 11.6 56 9.8
2011-08-16 07:13:03 51°18.745 2°55.1 56.7 11.6 56 9.8
2011-08-16 07:13:07 51°18.752 2°55.117 56.9 11.6 57 9.8
2011-08-16 07:13:13 51°18.762 2°55.144 58.4 11.6 60 9.7
2011-08-16 07:13:18 51°18.77 2°55.166 60.4 11.6 61 9.8
2011-08-16 07:13:23 51°18.777 2°55.189 61.8 11.6 63 9.9
2011-08-16 07:13:27 51°18.783 2°55.208 63.3 11.6 64 9.9
2011-08-16 07:13:32 51°18.79 2°55.231 64.3 11.7 65 9.9
2011-08-16 07:13:38 51°18.797 2°55.26 65.8 11.7 67 9.8
2011-08-16 07:13:43 51°18.803 2°55.283 67 11.7 68 9.7
2011-08-16 07:13:47 51°18.808 2°55.303 68.5 11.7 70 9.8
2011-08-16 07:13:52 51°18.813 2°55.327 70.3 11.7 71 9.8
2011-08-16 07:13:58 51°18.82 2°55.357 71.2 11.6 72 9.7
2011-08-16 07:14:03 51°18.825 2°55.381 72.1 11.7 72 9.7
2011-08-16 07:14:07 51°18.829 2°55.401 72.2 11.7 72 9.8
2011-08-16 07:14:12 51°18.834 2°55.426 72.1 11.7 73 9.8
2011-08-16 07:14:17 51°18.839 2°55.451 72.3 11.7 72 9.9
2011-08-16 07:14:23 51°18.844 2°55.48 72.7 11.6 73 9.8
2011-08-16 07:14:27 51°18.848 2°55.5 73 11.6 72 9.7
2011-08-16 07:14:32 51°18.853 2°55.524 72.2 11.6 70 9.7
2011-08-16 07:14:38 51°18.86 2°55.553 70.1 11.6 69 9.8
2011-08-16 07:14:43 51°18.867 2°55.577 69 11.6 67 9.7
2011-08-16 07:14:47 51°18.872 2°55.596 67.3 11.6 66 9.7
2011-08-16 07:14:53 51°18.88 2°55.623 66.2 11.6 66 9.7
2011-08-16 07:14:58 51°18.887 2°55.647 65.4 11.6 64 9.7
2011-08-16 07:15:03 51°18.894 2°55.67 65.3 11.7 65 9.7
2011-08-16 07:15:07 51°18.899 2°55.689 65.3 11.6 64 9.8
2011-08-16 07:15:13 51°18.908 2°55.716 64.3 11.6 64 9.7
2011-08-16 07:15:18 51°18.915 2°55.739 64.5 11.6 64 9.6
2011-08-16 07:15:23 51°18.922 2°55.762 64.4 11.6 64 9.6
2011-08-16 07:15:27 51°18.927 2°55.781 65.1 11.6 66 9.6
2011-08-16 07:15:32 51°18.934 2°55.804 66 11.6 65 9.6
2011-08-16 07:15:38 51°18.942 2°55.832 66 11.6 66 9.6
2011-08-16 07:15:43 51°18.949 2°55.856 65.8 11.6 64 9.7
2011-08-16 07:15:47 51°18.954 2°55.874 65.2 11.6 64 9.6
2011-08-16 07:15:52 51°18.961 2°55.898 65.4 11.6 65 9.6
2011-08-16 07:15:58 51°18.969 2°55.925 65.1 11.6 63 9.6
2011-08-16 07:16:03 51°18.976 2°55.948 64.5 11.6 65 9.6
2011-08-16 07:16:07 51°18.981 2°55.967 65.8 11.6 66 9.5
2011-08-16 07:16:12 51°18.988 2°55.991 66.6 11.6 67 9.5
2011-08-16 07:16:18 51°18.995 2°56.019 67.2 11.6 68 9.5
2011-08-16 07:16:23 51°18.999 2°56.044 69.4 11.6 72 9.5
2011-08-16 07:16:27 51°19.003 2°56.064 71.4 11.6 71 9.5
2011-08-16 07:16:33 51°19.009 2°56.093 71.9 11.6 73 9.4
2011-08-16 07:16:38 51°19.014 2°56.118 72.7 11.6 73 9.5
2011-08-16 07:16:43 51°19.019 2°56.142 72.5 11.6 72 9.5
2011-08-16 07:16:47 51°19.022 2°56.162 72.6 11.7 74 9.5
2011-08-16 07:16:53 51°19.028 2°56.191 73.2 11.7 72 9.5
2011-08-16 07:16:58 51°19.033 2°56.216 73.4 11.7 73 9.4
2011-08-16 07:17:03 51°19.037 2°56.241 73.5 11.7 73 9.5
2011-08-16 07:17:08 51°19.042 2°56.265 73 11.6 73 9.4
2011-08-16 07:17:12 51°19.046 2°56.285 72.7 11.6 71 9.4
2011-08-16 07:17:18 51°19.053 2°56.314 71.1 11.6 68 9.3
2011-08-16 07:17:22 51°19.059 2°56.332 68.3 11.6 66 9.5
2011-08-16 07:17:27 51°19.066 2°56.355 66 11.6 64 9.4
2011-08-16 07:17:33 51°19.074 2°56.383 65 11.6 64 9.5
2011-08-16 07:17:38 51°19.082 2°56.406 64.7 11.6 63 9.4
2011-08-16 07:17:43 51°19.09 2°56.429 63.2 11.6 61 9.4
2011-08-16 07:17:47 51°19.096 2°56.447 62.4 11.6 61 9.3
2011-08-16 07:17:52 51°19.104 2°56.469 62.2 11.7 61 9.3
2011-08-16 07:17:58 51°19.114 2°56.496 61.3 11.7 60 9.5
2011-08-16 07:18:03 51°19.122 2°56.519 61 11.6 61 9.5
2011-08-16 07:18:07 51°19.128 2°56.537 62.2 11.6 61 9.4
2011-08-16 07:18:12 51°19.136 2°56.559 61.9 11.7 61 9.3
2011-08-16 07:18:18 51°19.144 2°56.587 62.5 11.7 64 9.3
2011-08-16 07:18:23 51°19.151 2°56.611 64.7 11.7 66 9.4
2011-08-16 07:18:27 51°19.156 2°56.63 66.4 11.6 67 9.3
2011-08-16 07:18:33 51°19.163 2°56.658 67.9 11.6 69 9.3
2011-08-16 07:18:38 51°19.168 2°56.682 69 11.6 70 9.3
2011-08-16 07:18:43 51°19.174 2°56.707 69.7 11.6 69 9.3
2011-08-16 07:18:47 51°19.178 2°56.726 69.8 11.7 70 9.3
2011-08-16 07:18:52 51°19.183 2°56.751 70.8 11.6 71 9.2
2011-08-16 07:18:58 51°19.19 2°56.78 70.9 11.6 70 9.2
2011-08-16 07:19:03 51°19.195 2°56.804 71.2 11.6 72 9.3
2011-08-16 07:19:08 51°19.2 2°56.828 71.7 11.6 71 9.3
2011-08-16 07:19:12 51°19.204 2°56.848 71.7 11.6 72 9.3
2011-08-16 07:19:18 51°19.211 2°56.877 71.5 11.6 70 9.3
2011-08-16 07:19:22 51°19.215 2°56.897 71.1 11.6 70 9.2
2011-08-16 07:19:27 51°19.22 2°56.921 70.5 11.6 70 9.3
2011-08-16 07:19:33 51°19.227 2°56.95 70 11.6 70 9.2
2011-08-16 07:19:38 51°19.233 2°56.974 70 11.6 69 9.2
2011-08-16 07:19:43 51°19.238 2°56.998 69.9 11.6 70 9.1
2011-08-16 07:19:47 51°19.243 2°57.017 69.9 11.6 69 9.1
2011-08-16 07:19:53 51°19.249 2°57.046 70.3 11.6 71 9.2
2011-08-16 07:19:58 51°19.255 2°57.07 71 11.6 69 9.1
2011-08-16 07:20:03 51°19.26 2°57.094 70.9 11.6 71 9.1
2011-08-16 07:20:07 51°19.265 2°57.113 70.4 11.5 69 9.2
2011-08-16 07:20:13 51°19.271 2°57.142 70.2 11.5 70 9.1
2011-08-16 07:20:18 51°19.277 2°57.166 69.4 11.5 67 9.1
2011-08-16 07:20:23 51°19.283 2°57.19 69.2 11.6 69 9.2
2011-08-16 07:20:27 51°19.288 2°57.208 68.5 11.5 66 9.2
2011-08-16 07:20:33 51°19.295 2°57.237 68 11.5 67 9.2
2011-08-16 07:20:38 51°19.303 2°57.26 66.4 11.6 63 9.3
2011-08-16 07:20:43 51°19.31 2°57.282 64.4 11.5 63 9.2
2011-08-16 07:20:47 51°19.316 2°57.3 63.2 11.5 62 9.2
2011-08-16 07:20:52 51°19.324 2°57.323 62.9 11.5 60 9.2
2011-08-16 07:20:58 51°19.334 2°57.349 61.7 11.6 61 9.2
2011-08-16 07:21:03 51°19.342 2°57.371 61.5 11.5 60 9.1
2011-08-16 07:21:07 51°19.348 2°57.389 61.7 11.5 61 9.1
2011-08-16 07:21:12 51°19.356 2°57.411 61.1 11.5 59 9.1
2011-08-16 07:21:17 51°19.364 2°57.433 61.1 11.5 60 9.1
2011-08-16 07:21:22 51°19.371 2°57.455 61.9 11.5 61 9.2
2011-08-16 07:21:27 51°19.379 2°57.477 61.8 11.5 60 9.1
2011-08-16 07:21:33 51°19.389 2°57.504 61.3 11.4 61 9.1
2011-08-16 07:21:38 51°19.396 2°57.526 62.2 11.5 62 9
2011-08-16 07:21:43 51°19.404 2°57.549 62.7 11.5 62 9.1
2011-08-16 07:21:47 51°19.409 2°57.567 63.3 11.4 64 9.1
2011-08-16 07:21:53 51°19.418 2°57.594 64.4 11.4 63 9.1
2011-08-16 07:21:58 51°19.425 2°57.616 64 11.4 63 9
2011-08-16 07:22:03 51°19.433 2°57.639 63.3 11.5 61 9.1
2011-08-16 07:22:07 51°19.439 2°57.656 62.5 11.5 62 9.1
2011-08-16 07:22:12 51°19.446 2°57.679 62.7 11.4 62 9.1
2011-08-16 07:22:18 51°19.455 2°57.705 63.4 11.4 62 9
2011-08-16 07:22:22 51°19.461 2°57.723 63.1 11.5 61 9.1
2011-08-16 07:22:27 51°19.469 2°57.746 62.8 11.4 62 9
2011-08-16 07:22:33 51°19.477 2°57.772 63.2 11.4 61 9
2011-08-16 07:22:38 51°19.485 2°57.795 63.2 11.4 62 8.9
2011-08-16 07:22:43 51°19.492 2°57.817 63.5 11.4 62 9
2011-08-16 07:22:47 51°19.498 2°57.835 63.5 11.4 63 9
2011-08-16 07:22:52 51°19.504 2°57.858 64.7 11.5 64 9
2011-08-16 07:22:57 51°19.511 2°57.881 65.4 11.5 66 9
2011-08-16 07:23:03 51°19.518 2°57.909 66.9 11.5 68 9
2011-08-16 07:23:07 51°19.522 2°57.928 69 11.4 70 8.9
2011-08-16 07:23:12 51°19.528 2°57.952 69.8 11.4 69 9
2011-08-16 07:23:17 51°19.533 2°57.976 70.3 11.4 71 9
2011-08-16 07:23:23 51°19.54 2°58.004 71 11.4 70 8.9
2011-08-16 07:23:27 51°19.544 2°58.023 71.2 11.4 71 8.9
2011-08-16 07:23:33 51°19.55 2°58.052 71.1 11.4 70 8.9
2011-08-16 07:23:38 51°19.555 2°58.075 70.7 11.4 70 8.9
2011-08-16 07:23:43 51°19.561 2°58.099 70.7 11.4 70 8.9
2011-08-16 07:23:47 51°19.565 2°58.118 70.8 11.4 70 8.9
2011-08-16 07:23:52 51°19.57 2°58.142 70.8 11.3 71 8.9
2011-08-16 07:23:58 51°19.577 2°58.17 71.2 11.4 71 8.8
2011-08-16 07:24:02 51°19.581 2°58.189 71.1 11.4 70 8.8
2011-08-16 07:24:07 51°19.586 2°58.213 70.4 11.4 70 8.8
2011-08-16 07:24:12 51°19.592 2°58.236 69.9 11.4 69 8.8
2011-08-16 07:24:18 51°19.599 2°58.265 70.1 11.4 69 8.8
2011-08-16 07:24:23 51°19.604 2°58.288 69.9 11.4 68 8.9
2011-08-16 07:24:27 51°19.609 2°58.307 68.5 11.4 67 8.8
2011-08-16 07:24:33 51°19.617 2°58.335 68.5 11.4 68 8.8
2011-08-16 07:24:38 51°19.623 2°58.358 68.4 11.5 66 8.8
2011-08-16 07:24:43 51°19.629 2°58.382 67.6 11.5 67 8.9
2011-08-16 07:24:47 51°19.634 2°58.4 67.9 11.5 67 8.8
2011-08-16 07:24:52 51°19.64 2°58.424 68.3 11.5 68 8.8
2011-08-16 07:24:58 51°19.648 2°58.452 68.6 11.4 67 8.7
2011-08-16 07:25:03 51°19.653 2°58.475 68.6 11.4 69 8.8
2011-08-16 07:25:07 51°19.659 2°58.494 68.7 11.4 66 8.8
2011-08-16 07:25:12 51°19.665 2°58.517 68 11.4 66 8.7
2011-08-16 07:25:18 51°19.673 2°58.544 67 11.5 65 8.7
2011-08-16 07:25:23 51°19.68 2°58.567 66.1 11.5 64 8.7
2011-08-16 07:25:27 51°19.686 2°58.586 65.6 11.5 63 8.7
2011-08-16 07:25:33 51°19.695 2°58.613 64.7 11.4 63 8.8
2011-08-16 07:25:38 51°19.702 2°58.635 64.4 11.4 62 8.6
2011-08-16 07:25:43 51°19.709 2°58.658 64.2 11.5 63 8.6
2011-08-16 07:25:47 51°19.715 2°58.676 64.8 11.4 63 8.7
2011-08-16 07:25:52 51°19.722 2°58.698 65.1 11.4 64 8.7
2011-08-16 07:25:58 51°19.73 2°58.726 65.4 11.4 65 8.6
2011-08-16 07:26:02 51°19.735 2°58.744 66.4 11.4 66 8.7
2011-08-16 07:26:07 51°19.742 2°58.767 66.9 11.3 67 8.7
2011-08-16 07:26:12 51°19.748 2°58.791 68.2 11.3 66 8.5
2011-08-16 07:26:18 51°19.755 2°58.818 68.2 11.4 67 8.6
2011-08-16 07:26:23 51°19.761 2°58.841 68.3 11.4 67 8.7
2011-08-16 07:26:27 51°19.766 2°58.86 69.1 11.3 69 8.6
2011-08-16 07:26:33 51°19.773 2°58.888 69.5 11.3 65 8.6
2011-08-16 07:26:38 51°19.78 2°58.911 68.1 11.4 67 8.6
2011-08-16 07:26:43 51°19.786 2°58.934 67.8 11.3 65 8.7
2011-08-16 07:26:47 51°19.791 2°58.952 67.7 11.3 66 8.5
2011-08-16 07:26:52 51°19.798 2°58.974 67.8 11.3 63 8.5
2011-08-16 07:26:58 51°19.807 2°59.001 65.6 11.3 63 8.5
2011-08-16 07:27:03 51°19.815 2°59.023 64 11.4 60 8.7
2011-08-16 07:27:07 51°19.821 2°59.04 62.3 11.3 59 8.6
2011-08-16 07:27:12 51°19.829 2°59.061 61.6 11.3 59 8.6
2011-08-16 07:27:18 51°19.839 2°59.087 61.4 11.3 58 8.6
2011-08-16 07:27:23 51°19.847 2°59.108 61 11.3 59 8.7
2011-08-16 07:27:27 51°19.854 2°59.125 60.9 11.3 59 8.6
2011-08-16 07:27:33 51°19.863 2°59.151 61.4 11.3 60 8.5
2011-08-16 07:27:38 51°19.871 2°59.173 61.7 11.3 60 8.6
2011-08-16 07:27:43 51°19.879 2°59.194 62.1 11.2 60 8.6
2011-08-16 07:27:47 51°19.885 2°59.211 62.2 11.2 61 8.6
2011-08-16 07:27:52 51°19.893 2°59.233 62.6 11.2 59 8.6
2011-08-16 07:27:57 51°19.901 2°59.255 62 11.2 62 8.4
2011-08-16 07:28:03 51°19.91 2°59.281 63.2 11.3 60 8.6
2011-08-16 07:28:07 51°19.916 2°59.298 63.1 11.2 64 8.6
2011-08-16 07:28:13 51°19.924 2°59.325 65.1 11.2 63 8.6
2011-08-16 07:28:18 51°19.931 2°59.347 65.3 11.2 64 8.7
2011-08-16 07:28:23 51°19.937 2°59.37 65.8 11.1 64 8.7
2011-08-16 07:28:27 51°19.943 2°59.387 65.4 11.1 63 8.7
2011-08-16 07:28:33 51°19.951 2°59.414 65.7 11.1 64 8.6
2011-08-16 07:28:38 51°19.957 2°59.436 66.6 11.1 65 8.6
2011-08-16 07:28:43 51°19.964 2°59.458 66.6 11.1 65 8.6
2011-08-16 07:28:47 51°19.969 2°59.476 66.9 11.1 65 8.6
2011-08-16 07:28:53 51°19.977 2°59.503 66.9 11.2 66 8.5
2011-08-16 07:28:58 51°19.983 2°59.526 67.3 11.1 67 8.6
2011-08-16 07:29:03 51°19.989 2°59.548 67.8 11 66 8.6
2011-08-16 07:29:07 51°19.994 2°59.566 67.6 11 65 8.6
2011-08-16 07:29:12 51°20.001 2°59.588 66.9 10.9 65 8.5
2011-08-16 07:29:18 51°20.008 2°59.614 66.9 11 66 8.5
2011-08-16 07:29:23 51°20.014 2°59.637 67.2 11 67 8.7
2011-08-16 07:29:27 51°20.019 2°59.655 68.2 11 68 8.6
2011-08-16 07:29:32 51°20.025 2°59.677 69 10.9 68 8.6
2011-08-16 07:29:38 51°20.031 2°59.704 69.2 10.9 70 8.6
2011-08-16 07:29:43 51°20.037 2°59.727 70.3 11 69 8.6
2011-08-16 07:29:47 51°20.04 2°59.745 71.1 11 71 8.5
2011-08-16 07:29:52 51°20.046 2°59.768 71.3 10.9 70 8.6
2011-08-16 07:29:57 51°20.051 2°59.791 71.1 10.9 69 8.5
2011-08-16 07:30:03 51°20.058 2°59.818 70.3 11 68 8.6
2011-08-16 07:30:07 51°20.063 2°59.836 69.4 10.9 68 8.6
2011-08-16 07:30:13 51°20.069 2°59.863 69.2 10.9 68 8.5
2011-08-16 07:30:18 51°20.075 2°59.886 69.7 10.9 69 8.5
2011-08-16 07:30:23 51°20.081 2°59.908 69.7 10.9 67 8.4
2011-08-16 07:30:27 51°20.085 2°59.926 68.9 11 68 8.5
2011-08-16 07:30:33 51°20.092 2°59.953 69.1 11 69 8.4
2011-08-16 07:30:38 51°20.097 2°59.976 70.1 10.9 70 8.4
2011-08-16 07:30:43 51°20.102 2°59.999 71.2 10.9 71 8.5
2011-08-16 07:30:48 51°20.107 3°0.022 72 11 70 8.5
2011-08-16 07:30:52 51°20.11 3°0.04 72.7 10.9 73 8.5
2011-08-16 07:30:58 51°20.116 3°0.068 73.6 10.9 72 8.5
2011-08-16 07:31:02 51°20.119 3°0.086 73.7 10.8 72 8.5
2011-08-16 07:31:07 51°20.125 3°0.109 73.4 10.8 71 8.5
2011-08-16 07:31:13 51°20.131 3°0.135 72.3 10.8 69 8.5
2011-08-16 07:31:18 51°20.136 3°0.158 71.1 10.8 69 8.6
2011-08-16 07:31:23 51°20.142 3°0.18 70.5 10.8 67 8.5
2011-08-16 07:31:27 51°20.147 3°0.198 69.9 10.8 68 8.5
2011-08-16 07:31:32 51°20.153 3°0.219 68.9 10.8 62 8.4
2011-08-16 07:31:38 51°20.162 3°0.245 66.5 10.9 64 8.4
2011-08-16 07:31:43 51°20.169 3°0.266 65.3 10.9 60 8.6
2011-08-16 07:31:47 51°20.175 3°0.282 63.5 10.8 60 8.5
2011-08-16 07:31:52 51°20.183 3°0.303 63.4 10.8 60 8.6
2011-08-16 07:31:58 51°20.192 3°0.328 62.6 10.9 59 8.5
2011-08-16 07:32:03 51°20.2 3°0.348 62.6 10.9 59 8.6
2011-08-16 07:32:07 51°20.206 3°0.365 62.7 10.8 60 8.5
2011-08-16 07:32:13 51°20.215 3°0.389 62.7 10.8 58 8.5
2011-08-16 07:32:18 51°20.223 3°0.41 62.4 10.8 59 8.5
2011-08-16 07:32:23 51°20.231 3°0.43 62.4 10.8 58 8.5
2011-08-16 07:32:27 51°20.237 3°0.447 62.5 10.7 60 8.5
2011-08-16 07:32:33 51°20.246 3°0.471 62.7 10.8 59 8.5
2011-08-16 07:32:38 51°20.254 3°0.492 63 10.8 60 8.6
2011-08-16 07:32:42 51°20.26 3°0.508 63.4 10.7 60 8.6
2011-08-16 07:32:48 51°20.268 3°0.533 64.2 10.7 61 8.5
2011-08-16 07:32:52 51°20.274 3°0.55 64.5 10.8 63 8.5
2011-08-16 07:32:58 51°20.281 3°0.576 65.9 10.7 65 8.6
2011-08-16 07:33:02 51°20.286 3°0.593 67.9 10.7 66 8.6
2011-08-16 07:33:07 51°20.291 3°0.615 70 10.7 70 8.6
2011-08-16 07:33:13 51°20.297 3°0.642 71.7 10.7 71 8.6
2011-08-16 07:33:18 51°20.302 3°0.665 72.8 10.7 71 8.6
2011-08-16 07:33:23 51°20.306 3°0.687 73.1 10.7 73 8.5
2011-08-16 07:33:27 51°20.31 3°0.705 74.1 10.7 72 8.5
2011-08-16 07:33:33 51°20.316 3°0.732 73.6 10.7 71 8.6
2011-08-16 07:33:38 51°20.32 3°0.755 73.5 10.7 72 8.5
2011-08-16 07:33:43 51°20.325 3°0.777 74.1 10.7 72 8.6
2011-08-16 07:33:47 51°20.329 3°0.795 73 10.7 70 8.6
2011-08-16 07:33:52 51°20.334 3°0.817 72.9 10.7 70 8.5
2011-08-16 07:33:58 51°20.342 3°0.843 70.5 10.7 66 8.5
2011-08-16 07:34:03 51°20.348 3°0.864 68.9 10.7 65 8.6
2011-08-16 07:34:07 51°20.353 3°0.881 66.9 10.6 63 8.5
2011-08-16 07:34:12 51°20.36 3°0.902 66.3 10.6 62 8.6
2011-08-16 07:34:18 51°20.369 3°0.927 65.2 10.6 62 8.6
2011-08-16 07:34:23 51°20.375 3°0.948 65.9 10.6 63 8.6
2011-08-16 07:34:27 51°20.382 3°0.964 65.4 10.6 60 8.6
2011-08-16 07:34:32 51°20.388 3°0.985 64.9 10.6 62 8.6
2011-08-16 07:34:38 51°20.397 3°1.009 64.9 10.6 62 8.5
2011-08-16 07:34:43 51°20.404 3°1.03 65.3 10.6 60 8.5
2011-08-16 07:34:47 51°20.409 3°1.047 64.5 10.6 63 8.5
2011-08-16 07:34:52 51°20.416 3°1.068 65.4 10.7 61 8.6
2011-08-16 07:34:57 51°20.424 3°1.088 64.8 10.7 61 8.5
2011-08-16 07:35:03 51°20.432 3°1.113 65.4 10.6 64 8.5
2011-08-16 07:35:07 51°20.437 3°1.13 66.1 10.6 62 8.5
2011-08-16 07:35:13 51°20.445 3°1.155 66.3 10.6 64 8.6
2011-08-16 07:35:18 51°20.452 3°1.176 66.7 10.6 62 8.5
2011-08-16 07:35:23 51°20.458 3°1.197 66.7 10.6 64 8.5
2011-08-16 07:35:27 51°20.463 3°1.214 66.7 10.6 63 8.5
2011-08-16 07:35:33 51°20.471 3°1.239 66.8 10.6 63 8.5
2011-08-16 07:35:38 51°20.478 3°1.26 66.8 10.7 64 8.4
2011-08-16 07:35:43 51°20.484 3°1.281 67 10.6 65 8.5
2011-08-16 07:35:47 51°20.489 3°1.299 67.5 10.5 65 8.4
2011-08-16 07:35:52 51°20.495 3°1.32 68.2 10.6 65 8.4
2011-08-16 07:35:58 51°20.503 3°1.346 68.1 10.6 65 8.3
2011-08-16 07:36:03 51°20.508 3°1.367 68.5 10.6 68 8.4
2011-08-16 07:36:07 51°20.513 3°1.384 69.8 10.7 67 8.3
2011-08-16 07:36:12 51°20.517 3°1.406 71.5 10.7 72 8.4
2011-08-16 07:36:18 51°20.523 3°1.433 72.8 10.6 70 8.3
2011-08-16 07:36:23 51°20.528 3°1.455 73.4 10.6 72 8.3
2011-08-16 07:36:27 51°20.531 3°1.473 74.1 10.6 72 8.3
2011-08-16 07:36:32 51°20.536 3°1.495 73.4 10.7 72 8.4
2011-08-16 07:36:37 51°20.541 3°1.518 73.8 10.7 72 8.4
2011-08-16 07:36:43 51°20.546 3°1.544 73.8 10.6 72 8.4
2011-08-16 07:36:47 51°20.55 3°1.562 74.1 10.6 72 8.3
2011-08-16 07:36:52 51°20.555 3°1.585 73.5 10.6 71 8.3
2011-08-16 07:36:57 51°20.559 3°1.607 73.6 10.7 71 8.3
2011-08-16 07:37:03 51°20.565 3°1.634 73.8 10.7 73 8.4
2011-08-16 07:37:07 51°20.569 3°1.652 73.8 10.7 70 8.4
2011-08-16 07:37:13 51°20.574 3°1.679 73.6 10.7 72 8.4
2011-08-16 07:37:18 51°20.579 3°1.701 73.1 10.7 69 8.4
2011-08-16 07:37:23 51°20.584 3°1.724 72.3 10.7 71 8.3
2011-08-16 07:37:27 51°20.589 3°1.741 72.3 10.6 68 8.3
2011-08-16 07:37:32 51°20.595 3°1.762 70.2 10.6 66 8.3
2011-08-16 07:37:38 51°20.603 3°1.787 67.7 10.6 63 8.3
2011-08-16 07:37:42 51°20.608 3°1.805 67.4 10.7 64 8.3
2011-08-16 07:37:47 51°20.615 3°1.825 66.6 10.7 62 8.2
2011-08-16 07:37:52 51°20.622 3°1.846 65.8 10.6 62 8.3
2011-08-16 07:37:58 51°20.63 3°1.871 65.1 10.6 61 8.4
2011-08-16 07:38:03 51°20.637 3°1.891 64.4 10.6 62 8.4
2011-08-16 07:38:07 51°20.643 3°1.908 66 10.6 63 8.4
2011-08-16 07:38:12 51°20.65 3°1.929 65.8 10.7 62 8.4
2011-08-16 07:38:18 51°20.658 3°1.955 65.8 10.7 64 8.4
2011-08-16 07:38:23 51°20.664 3°1.976 67 10.7 64 8.5
2011-08-16 07:38:27 51°20.669 3°1.993 67.3 10.7 65 8.4
2011-08-16 07:38:32 51°20.675 3°2.014 68.2 10.7 64 8.5
2011-08-16 07:38:38 51°20.683 3°2.04 67.2 10.7 65 8.5
2011-08-16 07:38:43 51°20.689 3°2.061 67.6 10.7 65 8.5
2011-08-16 07:38:47 51°20.695 3°2.078 67.5 10.7 64 8.6
2011-08-16 07:38:52 51°20.701 3°2.1 67.6 10.7 66 8.6
2011-08-16 07:38:58 51°20.708 3°2.126 68.1 10.7 65 8.6
2011-08-16 07:39:03 51°20.714 3°2.147 68.3 10.8 65 8.6
2011-08-16 07:39:07 51°20.72 3°2.164 68 10.8 64 8.7
2011-08-16 07:39:12 51°20.726 3°2.186 67.4 10.8 65 8.9
2011-08-16 07:39:18 51°20.733 3°2.212 67.6 10.7 65 8.8
2011-08-16 07:39:23 51°20.739 3°2.233 67.9 10.7 66 8.8
2011-08-16 07:39:28 51°20.746 3°2.255 68.3 10.7 65 8.8
2011-08-16 07:39:32 51°20.751 3°2.272 68.2 10.8 67 8.9
2011-08-16 07:39:38 51°20.758 3°2.298 68.7 10.8 65 8.9
2011-08-16 07:39:42 51°20.762 3°2.316 69.6 10.8 69 8.9
2011-08-16 07:39:47 51°20.768 3°2.338 70 10.7 68 8.9
2011-08-16 07:39:53 51°20.774 3°2.365 71.1 10.7 70 8.9
2011-08-16 07:39:58 51°20.779 3°2.387 71.9 10.7 70 8.8
2011-08-16 07:40:03 51°20.784 3°2.41 72.5 10.7 70 9
2011-08-16 07:40:07 51°20.787 3°2.428 72.2 10.8 70 9
2011-08-16 07:40:13 51°20.793 3°2.454 72.7 10.7 71 9
2011-08-16 07:40:18 51°20.797 3°2.477 73.8 10.7 74 9.1
2011-08-16 07:40:23 51°20.802 3°2.5 74.7 10.8 72 9
2011-08-16 07:40:27 51°20.805 3°2.518 74.3 10.8 74 9.1
2011-08-16 07:40:32 51°20.809 3°2.541 74.8 10.7 72 9.1
2011-08-16 07:40:38 51°20.815 3°2.568 74.1 10.7 72 8.9
2011-08-16 07:40:43 51°20.82 3°2.591 74.1 10.7 72 9
2011-08-16 07:40:47 51°20.824 3°2.609 73 10.8 70 9
2011-08-16 07:40:52 51°20.829 3°2.631 71.9 10.7 68 9
2011-08-16 07:40:58 51°20.836 3°2.657 70.9 10.7 67 9
2011-08-16 07:41:03 51°20.842 3°2.679 69.4 10.7 68 9.1
2011-08-16 07:41:07 51°20.846 3°2.697 69.6 10.7 66 9
2011-08-16 07:41:12 51°20.852 3°2.718 69.2 10.7 67 9
2011-08-16 07:41:18 51°20.859 3°2.744 69.3 10.7 66 9
2011-08-16 07:41:23 51°20.866 3°2.765 68.6 10.7 64 8.9
2011-08-16 07:41:27 51°20.871 3°2.782 67.3 10.6 63 9.1
2011-08-16 07:41:32 51°20.878 3°2.803 66.3 10.6 63 9.1
2011-08-16 07:41:38 51°20.886 3°2.828 66.3 10.6 63 9.1
2011-08-16 07:41:42 51°20.892 3°2.845 66.1 10.7 62 9.1
2011-08-16 07:41:47 51°20.898 3°2.866 65.6 10.7 63 9.1
2011-08-16 07:41:53 51°20.906 3°2.892 67.1 10.7 65 9.1
2011-08-16 07:41:58 51°20.912 3°2.914 67.6 10.7 65 9.1
2011-08-16 07:42:03 51°20.918 3°2.935 68.5 10.6 65 9.2
2011-08-16 07:42:07 51°20.923 3°2.952 68.2 10.6 65 9.2
2011-08-16 07:42:13 51°20.931 3°2.978 67.9 10.7 64 9
2011-08-16 07:42:18 51°20.937 3°2.999 67.4 10.7 65 8.9
2011-08-16 07:42:23 51°20.944 3°3.02 66.8 10.7 63 9
2011-08-16 07:42:27 51°20.949 3°3.038 67.4 10.7 63 9.1
2011-08-16 07:42:33 51°20.957 3°3.062 66.1 10.7 63 9.2
2011-08-16 07:42:38 51°20.964 3°3.084 66.8 10.7 64 9.2
2011-08-16 07:42:43 51°20.97 3°3.105 67 10.7 64 9.1
2011-08-16 07:42:47 51°20.975 3°3.122 67.6 10.6 65 9.2
2011-08-16 07:42:52 51°20.982 3°3.143 67.4 10.6 63 9.2
2011-08-16 07:42:58 51°20.989 3°3.168 67.7 10.5 65 9.2
2011-08-16 07:43:03 51°20.996 3°3.189 67.7 10.5 64 9.1
2011-08-16 07:43:07 51°21 3°3.207 68.3 10.6 66 9.2
2011-08-16 07:43:12 51°21.006 3°3.228 68.6 10.6 67 9.3
2011-08-16 07:43:18 51°21.013 3°3.254 70.1 10.6 69 9.1
2011-08-16 07:43:23 51°21.018 3°3.276 70.5 10.6 68 9.3
2011-08-16 07:43:27 51°21.022 3°3.294 71.8 10.5 72 9.3
2011-08-16 07:43:32 51°21.026 3°3.316 73.8 10.5 73 9.3
2011-08-16 07:43:37 51°21.03 3°3.338 74.6 10.5 73 9.2
2011-08-16 07:43:43 51°21.035 3°3.365 75.6 10.6 75 9.2
2011-08-16 07:43:47 51°21.038 3°3.383 75.6 10.6 73 9.3
2011-08-16 07:43:53 51°21.043 3°3.41 75.2 10.5 73 9.3
2011-08-16 07:43:58 51°21.048 3°3.432 74.8 10.5 71 9.3
2011-08-16 07:44:03 51°21.053 3°3.454 73.2 10.5 69 9.3
2011-08-16 07:44:07 51°21.058 3°3.471 71.9 10.5 68 9.2
2011-08-16 07:44:13 51°21.065 3°3.497 70.5 10.5 67 9.3
2011-08-16 07:44:18 51°21.071 3°3.518 69.5 10.6 66 9.4
2011-08-16 07:44:23 51°21.077 3°3.539 68.9 10.5 64 9.5
2011-08-16 07:44:27 51°21.082 3°3.556 68.1 10.6 65 9.4
2011-08-16 07:44:32 51°21.089 3°3.577 67.9 10.5 63 9.4
2011-08-16 07:44:38 51°21.096 3°3.602 67.2 10.6 65 9.4
2011-08-16 07:44:42 51°21.101 3°3.62 68.2 10.6 66 9.2
2011-08-16 07:44:47 51°21.107 3°3.641 68.9 10.6 66 9.4
2011-08-16 07:44:53 51°21.114 3°3.667 69 10.7 67 9.4
2011-08-16 07:44:58 51°21.119 3°3.689 70.8 10.7 70 9.4
2011-08-16 07:45:03 51°21.124 3°3.711 72.7 10.6 71 9.4
2011-08-16 07:45:07 51°21.127 3°3.729 74.1 10.6 72 9.4
2011-08-16 07:45:12 51°21.132 3°3.751 74.9 10.6 71 9.3
2011-08-16 07:45:18 51°21.137 3°3.778 74.4 10.6 71 9.3
2011-08-16 07:45:23 51°21.142 3°3.8 74.1 10.6 71 9.4
2011-08-16 07:45:27 51°21.146 3°3.818 74.1 10.6 73 9.4
2011-08-16 07:45:32 51°21.15 3°3.84 75 10.6 73 9.2
2011-08-16 07:45:37 51°21.155 3°3.863 75.4 10.7 72 9.3
2011-08-16 07:45:43 51°21.16 3°3.89 75.3 10.6 72 9.2
2011-08-16 07:45:47 51°21.164 3°3.908 74.1 10.7 71 9.5
2011-08-16 07:45:53 51°21.17 3°3.935 74.4 10.6 71 9.5
2011-08-16 07:45:58 51°21.174 3°3.957 74.3 10.6 71 9.4
2011-08-16 07:46:03 51°21.179 3°3.979 73.7 10.6 70 9.3
2011-08-16 07:46:07 51°21.183 3°3.997 73.6 10.7 72 9.3
2011-08-16 07:46:12 51°21.188 3°4.019 73.5 10.6 70 9.2
2011-08-16 07:46:18 51°21.194 3°4.046 73.4 10.6 71 9.4
2011-08-16 07:46:22 51°21.198 3°4.063 72.5 10.6 69 9.3
2011-08-16 07:46:27 51°21.203 3°4.085 72 10.7 70 9.3
2011-08-16 07:46:32 51°21.209 3°4.107 71.3 10.6 68 9.4
2011-08-16 07:46:38 51°21.215 3°4.134 71.3 10.6 68 9.3
2011-08-16 07:46:43 51°21.221 3°4.155 70.8 10.6 67 9.4
2011-08-16 07:46:47 51°21.226 3°4.172 69.3 10.7 65 9.4
2011-08-16 07:46:53 51°21.233 3°4.198 68.3 10.7 65 9.4
2011-08-16 07:46:58 51°21.24 3°4.219 67.3 10.7 62 9.3
2011-08-16 07:47:03 51°21.247 3°4.241 66.8 10.7 64 9.3
2011-08-16 07:47:07 51°21.252 3°4.257 66.7 10.6 63 9.4
2011-08-16 07:47:13 51°21.26 3°4.283 66.1 10.7 64 9.4
2011-08-16 07:47:18 51°21.267 3°4.304 66.6 10.6 63 9.4
2011-08-16 07:47:23 51°21.273 3°4.325 66.9 10.6 64 9.4
2011-08-16 07:47:27 51°21.279 3°4.342 67.2 10.6 64 9.4
2011-08-16 07:47:32 51°21.285 3°4.363 67.3 10.6 64 9.4
2011-08-16 07:47:38 51°21.292 3°4.389 68.3 10.7 67 9.4
2011-08-16 07:47:43 51°21.298 3°4.411 69.1 10.7 67 9.4
2011-08-16 07:47:47 51°21.302 3°4.429 71 10.7 71 9.4
2011-08-16 07:47:52 51°21.306 3°4.451 72.5 10.6 70 9.5
2011-08-16 07:47:58 51°21.312 3°4.478 73.4 10.7 72 9.4
2011-08-16 07:48:03 51°21.317 3°4.5 73.5 10.7 68 9.4
2011-08-16 07:48:07 51°21.322 3°4.518 71.9 10.7 69 9.5
2011-08-16 07:48:12 51°21.327 3°4.539 70.9 10.7 67 9.4
2011-08-16 07:48:18 51°21.334 3°4.566 70.5 10.8 68 9.4
2011-08-16 07:48:23 51°21.341 3°4.587 69.5 10.8 64 9.5
2011-08-16 07:48:27 51°21.345 3°4.605 69.4 10.8 69 9.4
2011-08-16 07:48:32 51°21.35 3°4.627 70.5 10.7 67 9.5
2011-08-16 07:48:38 51°21.357 3°4.654 70.2 10.8 67 9.5
2011-08-16 07:48:43 51°21.363 3°4.676 70.1 10.7 67 9.5
2011-08-16 07:48:47 51°21.368 3°4.693 69.5 10.8 67 9.5
2011-08-16 07:48:52 51°21.374 3°4.715 69.3 10.8 66 9.5
2011-08-16 07:48:58 51°21.381 3°4.742 69.4 10.8 67 9.6
2011-08-16 07:49:03 51°21.387 3°4.763 69 10.8 66 9.6
2011-08-16 07:49:07 51°21.392 3°4.781 69 10.8 66 9.5
2011-08-16 07:49:13 51°21.399 3°4.807 68.4 10.8 65 9.6
2011-08-16 07:49:18 51°21.405 3°4.829 68.4 10.9 69 9.5
2011-08-16 07:49:23 51°21.41 3°4.852 70.3 10.8 68 9.5
2011-08-16 07:49:27 51°21.414 3°4.87 71.2 10.8 72 9.5
2011-08-16 07:49:33 51°21.419 3°4.897 73.2 10.8 72 9.5
2011-08-16 07:49:38 51°21.423 3°4.92 74 10.9 74 9.5
2011-08-16 07:49:43 51°21.427 3°4.944 75.6 10.9 75 9.5
2011-08-16 07:49:47 51°21.43 3°4.962 75.6 10.9 75 9.5
2011-08-16 07:49:52 51°21.434 3°4.986 76.3 10.8 76 9.4
2011-08-16 07:49:58 51°21.439 3°5.013 75.7 10.9 75 9.4
2011-08-16 07:50:03 51°21.443 3°5.037 75.4 10.9 74 9.4
2011-08-16 07:50:07 51°21.446 3°5.055 74.8 11 75 9.4
2011-08-16 07:50:12 51°21.45 3°5.079 75 11 73 9.4
2011-08-16 07:50:18 51°21.456 3°5.107 74 11 73 9.5
2011-08-16 07:50:23 51°21.46 3°5.13 73.6 10.9 73 9.4
2011-08-16 07:50:27 51°21.464 3°5.149 74 11 74 9.5
2011-08-16 07:50:32 51°21.468 3°5.172 74 11 73 9.4
2011-08-16 07:50:38 51°21.473 3°5.2 74.7 11 75 9.4
2011-08-16 07:50:43 51°21.477 3°5.224 74.5 11.1 73 9.5
2011-08-16 07:50:47 51°21.48 3°5.243 74.5 11 75 9.4
2011-08-16 07:50:52 51°21.484 3°5.266 74.9 10.9 75 9.4
2011-08-16 07:50:58 51°21.489 3°5.294 75.2 11 75 9.4
2011-08-16 07:51:03 51°21.493 3°5.318 74.3 11 73 9.3
2011-08-16 07:51:08 51°21.497 3°5.341 74.2 11 74 9.4
2011-08-16 07:51:12 51°21.501 3°5.36 74.1 11 74 9.4
2011-08-16 07:51:18 51°21.506 3°5.388 74.2 10.9 74 9.4
2011-08-16 07:51:23 51°21.51 3°5.411 74.1 11 74 9.4
2011-08-16 07:51:27 51°21.513 3°5.43 73.8 11 74 9.4
2011-08-16 07:51:33 51°21.519 3°5.457 74.1 11 74 9.4
2011-08-16 07:51:38 51°21.523 3°5.481 73.9 11 73 9.4
2011-08-16 07:51:43 51°21.528 3°5.504 73.4 10.9 72 9.5
2011-08-16 07:51:47 51°21.532 3°5.522 72.2 10.9 71 9.3
2011-08-16 07:51:52 51°21.537 3°5.545 70.5 11 69 9.4
2011-08-16 07:51:58 51°21.544 3°5.571 68.3 10.9 66 9.4
2011-08-16 07:52:03 51°21.55 3°5.593 67.6 10.9 67 9.5
2011-08-16 07:52:07 51°21.555 3°5.611 67.1 10.9 66 9.4
2011-08-16 07:52:12 51°21.561 3°5.633 67.2 11 67 9.4
2011-08-16 07:52:17 51°21.567 3°5.655 67.2 11 67 9.5
2011-08-16 07:52:23 51°21.575 3°5.682 67.4 11 66 9.4
2011-08-16 07:52:27 51°21.579 3°5.7 67.6 11 69 9.5
2011-08-16 07:52:32 51°21.585 3°5.723 68.6 11 69 9.5
2011-08-16 07:52:38 51°21.59 3°5.751 70 11 72 9.5
2011-08-16 07:52:43 51°21.595 3°5.774 72 11 73 9.5
2011-08-16 07:52:47 51°21.598 3°5.793 73.1 11.1 74 9.5
2011-08-16 07:52:52 51°21.603 3°5.817 73.8 11.1 74 9.5
2011-08-16 07:52:58 51°21.608 3°5.845 73.7 11 73 9.5
2011-08-16 07:53:03 51°21.612 3°5.868 73.4 11.1 74 9.5
2011-08-16 07:53:08 51°21.616 3°5.892 74 11 74 9.4
2011-08-16 07:53:12 51°21.62 3°5.911 74.1 11 75 9.5
2011-08-16 07:53:18 51°21.624 3°5.939 74.4 11 74 9.5
2011-08-16 07:53:22 51°21.627 3°5.958 74.6 11 75 9.4
2011-08-16 07:53:27 51°21.632 3°5.982 74.8 11 75 9.5
2011-08-16 07:53:32 51°21.636 3°6.005 74.3 11.1 74 9.5
2011-08-16 07:53:38 51°21.641 3°6.033 73.8 11.1 73 9.5
2011-08-16 07:53:43 51°21.646 3°6.057 73.2 11.1 73 9.5